createdAt,value
2022-09-04T00:02:43.703Z,7.57
2022-09-04T00:05:20.094Z,3.60
2022-09-04T00:08:05.852Z,3.00
2022-09-04T00:10:43.159Z,2.70
2022-09-04T00:13:16.613Z,3.13
2022-09-04T00:15:49.328Z,2.97
2022-09-04T00:18:25.404Z,2.90
2022-09-04T00:21:00.292Z,2.43
2022-09-04T00:23:37.231Z,2.27
2022-09-04T00:26:14.643Z,2.50
2022-09-04T00:28:49.200Z,3.50
2022-09-04T00:31:26.939Z,3.10
2022-09-04T00:34:04.240Z,3.37
2022-09-04T00:36:33.053Z,3.43
2022-09-04T00:39:13.857Z,3.00
2022-09-04T00:41:52.888Z,3.90
2022-09-04T00:44:40.139Z,3.13
2022-09-04T00:47:32.310Z,3.00
2022-09-04T00:50:27.824Z,4.30
2022-09-04T00:53:37.702Z,2.67
2022-09-04T00:56:35.183Z,3.73
2022-09-04T00:59:12.046Z,3.50
2022-09-04T01:01:41.145Z,3.70
2022-09-04T01:04:32.798Z,6.97
2022-09-04T01:07:24.764Z,5.00
2022-09-04T01:10:23.072Z,4.67
2022-09-04T01:13:01.023Z,4.10
2022-09-04T01:15:37.442Z,3.60
2022-09-04T01:18:10.270Z,3.80
2022-09-04T01:20:54.829Z,3.57
2022-09-04T01:23:45.912Z,3.40
2022-09-04T01:26:26.518Z,4.17
2022-09-04T01:29:10.604Z,6.27
2022-09-04T01:31:49.224Z,3.10
2022-09-04T01:34:45.078Z,3.40
2022-09-04T01:37:34.701Z,5.40
2022-09-04T01:40:18.871Z,3.50
2022-09-04T01:42:53.366Z,3.57
2022-09-04T01:45:31.275Z,4.00
2022-09-04T01:48:04.120Z,4.57
2022-09-04T01:50:33.637Z,3.90
2022-09-04T01:53:07.715Z,4.13
2022-09-04T01:55:44.771Z,4.97
2022-09-04T01:58:20.099Z,5.07
2022-09-04T02:00:58.934Z,3.50
2022-09-04T02:03:34.326Z,5.40
2022-09-04T02:06:09.540Z,3.53
2022-09-04T02:08:55.117Z,3.70
2022-09-04T02:11:28.231Z,4.13
2022-09-04T02:14:27.079Z,4.03
2022-09-04T02:17:08.031Z,4.27
2022-09-04T02:19:57.368Z,6.50
2022-09-04T02:22:32.891Z,4.37
2022-09-04T02:25:11.830Z,3.90
2022-09-04T02:27:50.439Z,3.90
2022-09-04T02:30:21.434Z,4.30
2022-09-04T02:32:57.886Z,4.20
2022-09-04T02:35:33.506Z,3.73
2022-09-04T02:38:11.002Z,4.07
2022-09-04T02:40:47.217Z,4.40
2022-09-04T02:43:39.966Z,5.07
2022-09-04T02:46:16.821Z,7.13
2022-09-04T02:48:57.595Z,5.93
2022-09-04T02:51:43.294Z,5.87
2022-09-04T02:54:20.298Z,5.87
2022-09-04T02:56:59.983Z,3.90
2022-09-04T02:59:42.167Z,4.00
2022-09-04T03:02:20.702Z,4.43
2022-09-04T03:04:53.879Z,4.63
2022-09-04T03:07:31.001Z,4.17
2022-09-04T03:10:05.866Z,5.67
2022-09-04T03:12:43.174Z,10.10
2022-09-04T03:15:21.595Z,5.93
2022-09-04T03:17:59.862Z,6.03
2022-09-04T03:20:29.927Z,5.40
2022-09-04T03:23:02.576Z,7.50
2022-09-04T03:26:12.135Z,7.27
2022-09-04T03:28:52.817Z,5.40
2022-09-04T03:31:30.763Z,6.13
2022-09-04T03:34:14.841Z,5.30
2022-09-04T03:36:54.007Z,6.10
2022-09-04T03:39:31.866Z,6.37
2022-09-04T03:42:07.181Z,6.93
2022-09-04T03:44:52.235Z,6.70
2022-09-04T03:47:33.563Z,6.00
2022-09-04T03:50:12.658Z,5.67
2022-09-04T03:52:50.263Z,6.10
2022-09-04T03:55:42.166Z,5.60
2022-09-04T03:58:20.576Z,42.63
2022-09-04T04:01:09.913Z,33.40
2022-09-04T04:03:55.904Z,16.73
2022-09-04T04:06:35.213Z,47.77
2022-09-04T04:09:20.853Z,32.77
2022-09-04T04:12:27.483Z,15.30
2022-09-04T04:15:16.714Z,10.63
2022-09-04T04:18:04.399Z,7.77
2022-09-04T04:20:42.198Z,9.20
2022-09-04T04:23:41.673Z,6.40
2022-09-04T04:26:15.268Z,10.50
2022-09-04T04:29:08.622Z,5.50
2022-09-04T04:32:05.085Z,8.63
2022-09-04T04:34:41.195Z,5.00
2022-09-04T04:37:14.431Z,4.43
2022-09-04T04:39:52.961Z,4.63
2022-09-04T04:42:26.107Z,19.57
2022-09-04T04:45:30.161Z,31.00
2022-09-04T04:48:15.774Z,13.77
2022-09-04T04:50:51.722Z,9.97
2022-09-04T04:53:27.227Z,6.97
2022-09-04T04:56:04.723Z,5.60
2022-09-04T04:58:51.568Z,5.83
2022-09-04T05:01:31.951Z,5.67
2022-09-04T05:04:12.406Z,4.33
2022-09-04T05:06:48.736Z,4.83
2022-09-04T05:09:25.915Z,4.97
2022-09-04T05:12:04.564Z,4.90
2022-09-04T05:14:42.694Z,7.10
2022-09-04T05:17:21.528Z,7.57
2022-09-04T05:20:00.595Z,5.47
2022-09-04T05:22:38.681Z,5.00
2022-09-04T05:25:12.781Z,6.57
2022-09-04T05:27:52.875Z,58.33
2022-09-04T05:30:29.077Z,16.33
2022-09-04T05:33:04.086Z,10.47
2022-09-04T05:35:39.677Z,8.20
2022-09-04T05:38:16.679Z,6.93
2022-09-04T05:41:15.230Z,5.77
2022-09-04T05:44:06.329Z,5.03
2022-09-04T05:46:51.833Z,6.73
2022-09-04T05:49:36.000Z,5.80
2022-09-04T05:52:26.785Z,5.60
2022-09-04T05:55:31.712Z,5.50
2022-09-04T05:58:11.916Z,4.07
2022-09-04T06:00:53.517Z,6.30
2022-09-04T06:03:36.223Z,4.83
2022-09-04T06:06:11.373Z,5.10
2022-09-04T06:09:02.131Z,5.60
2022-09-04T06:11:49.800Z,4.90
2022-09-04T06:14:41.128Z,4.20
2022-09-04T06:17:23.789Z,4.27
2022-09-04T06:20:11.411Z,4.50
2022-09-04T06:23:03.521Z,14.60
2022-09-04T06:26:04.146Z,49.10
2022-09-04T06:28:53.168Z,25.07
2022-09-04T06:31:58.559Z,14.10
2022-09-04T06:34:53.280Z,11.00
2022-09-04T06:37:33.311Z,6.67
2022-09-04T06:40:16.669Z,6.23
2022-09-04T06:42:58.102Z,5.37
2022-09-04T06:45:36.452Z,4.80
2022-09-04T06:48:18.755Z,4.40
2022-09-04T06:50:59.167Z,5.10
2022-09-04T06:53:42.531Z,4.40
2022-09-04T06:56:36.585Z,3.30
2022-09-04T06:59:23.475Z,3.40
2022-09-04T07:02:02.982Z,3.63
2022-09-04T07:04:43.287Z,54.20
2022-09-04T07:07:21.902Z,38.07
2022-09-04T07:09:59.927Z,27.30
2022-09-04T07:13:06.704Z,13.83
2022-09-04T07:16:02.931Z,10.17
2022-09-04T07:18:52.119Z,6.97
2022-09-04T07:21:28.572Z,5.30
2022-09-04T07:24:07.238Z,4.63
2022-09-04T07:26:44.087Z,4.63
2022-09-04T07:29:30.817Z,5.87
2022-09-04T07:32:06.616Z,4.57
2022-09-04T07:34:44.582Z,4.80
2022-09-04T07:37:25.063Z,3.20
2022-09-04T07:40:08.085Z,6.20
2022-09-04T07:42:43.251Z,2.70
2022-09-04T07:45:23.091Z,2.70
2022-09-04T07:48:01.180Z,2.77
2022-09-04T07:50:36.361Z,2.17
2022-09-04T07:53:20.774Z,6.97
2022-09-04T07:55:52.877Z,25.30
2022-09-04T07:58:50.396Z,19.33
2022-09-04T08:01:43.846Z,13.07
2022-09-04T08:04:26.745Z,5.10
2022-09-04T08:06:59.930Z,4.50
2022-09-04T08:09:56.225Z,4.70
2022-09-04T08:12:56.325Z,2.80
2022-09-04T08:15:32.975Z,3.53
2022-09-04T08:18:29.629Z,3.60
2022-09-04T08:21:14.249Z,5.80
2022-09-04T08:24:08.227Z,4.87
2022-09-04T08:26:47.717Z,3.87
2022-09-04T08:29:33.363Z,4.00
2022-09-04T08:32:16.346Z,3.80
2022-09-04T08:34:57.913Z,2.57
2022-09-04T08:37:29.034Z,2.60
2022-09-04T08:40:19.863Z,3.87
2022-09-04T08:43:19.611Z,2.47
2022-09-04T08:46:27.111Z,2.40
2022-09-04T08:49:21.811Z,3.47
2022-09-04T08:52:43.285Z,2.90
2022-09-04T08:55:33.456Z,2.20
2022-09-04T08:58:49.578Z,2.43
2022-09-04T09:01:53.081Z,2.70
2022-09-04T09:04:55.151Z,2.60
2022-09-04T09:08:05.102Z,2.83
2022-09-04T09:11:03.386Z,2.13
2022-09-04T09:13:56.758Z,2.73
2022-09-04T09:16:42.830Z,3.47
2022-09-04T09:19:19.587Z,2.00
2022-09-04T09:21:59.071Z,2.97
2022-09-04T09:25:00.644Z,2.20
2022-09-04T09:27:59.893Z,2.27
2022-09-04T09:30:42.700Z,2.87
2022-09-04T09:33:58.584Z,2.80
2022-09-04T09:37:06.723Z,2.13
2022-09-04T09:40:23.170Z,1.97
2022-09-04T09:43:16.230Z,2.30
2022-09-04T09:46:20.804Z,1.87
2022-09-04T09:49:15.220Z,2.43
2022-09-04T09:52:03.855Z,1.83
2022-09-04T09:55:17.262Z,1.87
2022-09-04T09:58:19.222Z,1.70
2022-09-04T10:01:00.152Z,1.50
2022-09-04T10:04:11.831Z,1.57
2022-09-04T10:07:10.350Z,1.40
2022-09-04T10:10:17.737Z,1.93
2022-09-04T10:13:15.186Z,1.80
2022-09-04T10:16:05.763Z,2.43
2022-09-04T10:19:30.940Z,1.73
2022-09-04T10:22:34.174Z,2.07
2022-09-04T10:25:25.600Z,1.90
2022-09-04T10:28:27.988Z,1.70
2022-09-04T10:31:39.672Z,1.70
2022-09-04T10:34:26.184Z,1.70
2022-09-04T10:37:05.989Z,2.40
2022-09-04T10:40:06.790Z,1.60
2022-09-04T10:42:47.855Z,1.70
2022-09-04T10:45:21.149Z,1.60
2022-09-04T10:48:16.910Z,1.30
2022-09-04T10:51:21.359Z,1.33
2022-09-04T10:54:20.274Z,1.40
2022-09-04T10:57:02.793Z,1.97
2022-09-04T10:59:59.643Z,1.73
2022-09-04T11:03:13.056Z,1.33
2022-09-04T11:06:16.818Z,1.30
2022-09-04T11:09:12.453Z,1.37
2022-09-04T11:12:09.378Z,1.70
2022-09-04T11:15:04.326Z,1.63
2022-09-04T11:18:01.264Z,1.33
2022-09-04T11:21:19.216Z,1.60
2022-09-04T11:24:21.019Z,1.80
2022-09-04T11:27:32.001Z,1.60
2022-09-04T11:30:14.021Z,1.40
2022-09-04T11:33:30.287Z,1.73
2022-09-04T11:36:19.495Z,1.23
2022-09-04T11:39:20.600Z,2.80
2022-09-04T11:42:25.062Z,2.33
2022-09-04T11:45:29.743Z,1.53
2022-09-04T11:48:27.961Z,3.47
2022-09-04T11:51:19.080Z,1.67
2022-09-04T11:54:18.513Z,1.57
2022-09-04T11:57:02.562Z,1.47
2022-09-04T11:59:51.779Z,1.30
2022-09-04T12:02:49.696Z,1.50
2022-09-04T12:05:39.670Z,1.40
2022-09-04T12:08:32.607Z,1.30
2022-09-04T12:12:00.432Z,1.20
2022-09-04T12:14:49.385Z,1.13
2022-09-04T12:17:56.407Z,1.40
2022-09-04T12:20:55.204Z,0.90
2022-09-04T12:24:01.542Z,1.27
2022-09-04T12:27:03.399Z,1.20
2022-09-04T12:30:05.146Z,1.30
2022-09-04T12:33:09.950Z,1.17
2022-09-04T12:36:10.302Z,1.30
2022-09-04T12:39:14.147Z,1.60
2022-09-04T12:41:50.179Z,1.27
2022-09-04T12:44:27.183Z,1.20
2022-09-04T12:47:13.938Z,1.30
2022-09-04T12:50:33.275Z,1.60
2022-09-04T12:53:19.164Z,1.20
2022-09-04T12:56:03.081Z,1.07
2022-09-04T12:58:44.461Z,0.90
2022-09-04T13:01:21.570Z,1.60
2022-09-04T13:03:58.858Z,1.20
2022-09-04T13:06:33.089Z,1.57
2022-09-04T13:09:14.119Z,1.57
2022-09-04T13:11:54.543Z,2.17
2022-09-04T13:14:57.998Z,1.30
2022-09-04T13:17:33.847Z,1.30
2022-09-04T13:20:14.619Z,1.23
2022-09-04T13:22:56.106Z,2.93
2022-09-04T13:25:37.491Z,2.10
2022-09-04T13:28:17.331Z,1.23
2022-09-04T13:30:53.327Z,1.23
2022-09-04T13:33:39.897Z,1.20
2022-09-04T13:36:19.992Z,1.50
2022-09-04T13:39:17.157Z,1.30
2022-09-04T13:42:14.916Z,1.90
2022-09-04T13:45:04.022Z,2.00
2022-09-04T13:47:39.868Z,1.53
2022-09-04T13:50:16.171Z,2.07
2022-09-04T13:52:50.056Z,1.37
2022-09-04T13:55:23.086Z,1.50
2022-09-04T13:58:01.088Z,1.60
2022-09-04T14:00:33.110Z,1.53
2022-09-04T14:03:07.283Z,1.73
2022-09-04T14:05:37.593Z,1.20
2022-09-04T14:08:10.429Z,1.30
2022-09-04T14:11:02.511Z,1.53
2022-09-04T14:13:44.934Z,2.10
2022-09-04T14:16:15.486Z,1.70
2022-09-04T14:19:15.826Z,1.80
2022-09-04T14:22:03.488Z,1.53
2022-09-04T14:24:40.988Z,2.50
2022-09-04T14:27:14.445Z,1.53
2022-09-04T14:29:57.806Z,1.37
2022-09-04T14:32:33.950Z,2.30
2022-09-04T14:35:11.240Z,1.93
2022-09-04T14:38:04.448Z,1.60
2022-09-04T14:40:35.612Z,1.37
2022-09-04T14:43:22.349Z,1.90
2022-09-04T14:46:10.619Z,3.60
2022-09-04T14:48:42.311Z,1.40
2022-09-04T14:51:18.293Z,1.60
2022-09-04T14:53:55.861Z,2.00
2022-09-04T14:56:31.080Z,1.37
2022-09-04T14:59:08.391Z,1.50
2022-09-04T15:01:55.428Z,2.20
2022-09-04T15:04:27.060Z,3.40
2022-09-04T15:07:11.306Z,1.40
2022-09-04T15:09:43.251Z,2.47
2022-09-04T15:12:25.337Z,4.10
2022-09-04T15:15:03.893Z,2.87
2022-09-04T15:17:39.170Z,2.63
2022-09-04T15:20:17.011Z,3.90
2022-09-04T15:22:50.348Z,6.13
2022-09-04T15:25:58.332Z,4.00
2022-09-04T15:28:38.458Z,2.93
2022-09-04T15:31:15.838Z,5.20
2022-09-04T15:33:48.465Z,12.90
2022-09-04T15:36:20.178Z,10.43
2022-09-04T15:38:52.104Z,8.63
2022-09-04T15:41:27.605Z,4.30
2022-09-04T15:44:02.715Z,3.63
2022-09-04T15:46:44.089Z,2.20
2022-09-04T15:49:31.288Z,2.53
2022-09-04T15:52:21.413Z,2.70
2022-09-04T15:55:05.158Z,1.67
2022-09-04T15:57:44.266Z,1.60
2022-09-04T16:00:17.390Z,2.63
2022-09-04T16:02:54.631Z,1.60
2022-09-04T16:05:32.327Z,1.60
2022-09-04T16:08:07.607Z,1.37
2022-09-04T16:10:57.366Z,1.60
2022-09-04T16:13:36.535Z,1.33
2022-09-04T16:16:11.283Z,1.63
2022-09-04T16:19:02.590Z,6.07
2022-09-04T16:21:44.461Z,6.20
2022-09-04T16:24:16.280Z,5.30
2022-09-04T16:26:50.291Z,4.50
2022-09-04T16:29:36.933Z,3.03
2022-09-04T16:32:09.654Z,3.10
2022-09-04T16:34:47.091Z,2.40
2022-09-04T16:37:23.541Z,2.70
2022-09-04T16:40:02.183Z,2.53
2022-09-04T16:42:37.697Z,1.90
2022-09-04T16:45:11.512Z,1.97
2022-09-04T16:47:46.169Z,3.90
2022-09-04T16:50:24.867Z,1.50
2022-09-04T16:53:12.914Z,3.53
2022-09-04T16:55:48.102Z,1.70
2022-09-04T16:58:35.576Z,1.90
2022-09-04T17:01:14.776Z,1.30
2022-09-04T17:04:12.466Z,1.70
2022-09-04T17:06:47.694Z,1.20
2022-09-04T17:09:24.656Z,1.30
2022-09-04T17:11:56.358Z,1.60
2022-09-04T17:14:31.749Z,1.50
2022-09-04T17:17:12.549Z,2.70
2022-09-04T17:20:08.112Z,0.90
2022-09-04T17:29:04.062Z,1.43
2022-09-04T17:29:09.739Z,1.30
2022-09-04T17:29:11.751Z,1.40
2022-09-04T17:31:45.671Z,1.30
2022-09-04T17:40:35.769Z,1.20
2022-09-04T17:40:52.231Z,1.40
2022-09-04T17:40:53.992Z,1.63
2022-09-04T17:43:22.988Z,1.50
2022-09-04T17:46:02.673Z,1.20
2022-09-04T17:48:33.230Z,1.50
2022-09-04T17:51:04.074Z,1.47
2022-09-04T17:53:35.068Z,1.53
2022-09-04T17:56:09.306Z,1.57
2022-09-04T17:58:44.033Z,2.30
2022-09-04T18:01:19.938Z,6.10
2022-09-04T18:04:20.794Z,1.97
2022-09-04T18:06:55.737Z,1.63
2022-09-04T18:09:31.997Z,1.73
2022-09-04T18:12:11.088Z,3.23
2022-09-04T18:15:25.175Z,2.40
2022-09-04T18:17:50.475Z,3.43
2022-09-04T18:20:29.465Z,2.30
2022-09-04T18:23:23.586Z,1.90
2022-09-04T18:25:56.807Z,3.47
2022-09-04T18:28:33.936Z,3.30
2022-09-04T18:37:12.273Z,5.20
2022-09-04T18:37:17.802Z,3.27
2022-09-04T18:37:46.020Z,4.13
2022-09-04T18:40:11.640Z,2.83
2022-09-04T18:50:22.073Z,7.90
2022-09-04T18:50:34.465Z,2.60
2022-09-04T18:50:43.189Z,2.57
2022-09-04T18:51:31.089Z,2.63
2022-09-04T18:54:08.374Z,3.70
2022-09-04T18:56:42.849Z,2.80
2022-09-04T18:59:16.990Z,4.13
2022-09-04T19:01:50.480Z,3.00
2022-09-04T19:04:43.318Z,2.97
2022-09-04T19:07:27.375Z,3.47
2022-09-04T19:10:22.154Z,2.40
2022-09-04T19:13:04.851Z,4.03
2022-09-04T19:15:50.660Z,3.67
2022-09-04T19:18:29.677Z,3.50
2022-09-04T19:23:58.801Z,4.03
2022-09-04T19:26:36.091Z,3.33
2022-09-04T19:29:12.219Z,2.77
2022-09-04T19:31:44.813Z,2.60
2022-09-04T19:34:20.606Z,2.10
2022-09-04T19:36:55.729Z,2.53
2022-09-04T19:45:54.333Z,2.00
2022-09-04T19:46:02.227Z,3.47
2022-09-04T19:46:06.659Z,4.30
2022-09-04T19:48:27.332Z,5.33
2022-09-04T19:53:30.394Z,2.90
2022-09-04T19:53:56.308Z,2.80
2022-09-04T19:56:31.135Z,2.07
2022-09-04T19:59:06.578Z,2.30
2022-09-04T20:01:45.845Z,3.97
2022-09-04T20:04:26.072Z,8.93
2022-09-04T20:06:59.266Z,2.10
2022-09-04T20:09:33.959Z,2.90
2022-09-04T20:12:12.777Z,2.40
2022-09-04T20:14:47.027Z,2.37
2022-09-04T20:17:35.241Z,3.83
2022-09-04T20:20:15.380Z,2.80
2022-09-04T20:22:49.136Z,4.33
2022-09-04T20:25:40.911Z,2.77
2022-09-04T20:28:23.564Z,2.40
2022-09-04T20:31:33.334Z,2.40
2022-09-04T20:34:00.428Z,2.37
2022-09-04T20:36:35.821Z,2.63
2022-09-04T20:39:10.009Z,5.10
2022-09-04T20:41:49.569Z,2.30
2022-09-04T20:44:24.567Z,2.33
2022-09-04T20:52:46.367Z,3.80
2022-09-04T20:52:53.515Z,3.67
2022-09-04T20:53:13.425Z,2.27
2022-09-04T20:55:54.887Z,2.20
2022-09-04T21:03:10.208Z,3.07
2022-09-04T21:03:19.610Z,2.70
2022-09-04T21:04:43.044Z,3.90
2022-09-04T21:07:24.570Z,4.30
2022-09-04T21:10:09.549Z,3.97
2022-09-04T21:12:43.901Z,7.93
2022-09-04T21:15:24.877Z,5.20
2022-09-04T21:18:14.377Z,3.00
2022-09-04T21:21:00.035Z,3.07
2022-09-04T21:23:56.470Z,2.80
2022-09-04T21:26:50.781Z,2.47
2022-09-04T21:29:46.538Z,3.10
2022-09-04T21:32:29.951Z,4.20
2022-09-04T21:35:07.770Z,2.70
2022-09-04T21:37:46.936Z,5.20
2022-09-04T21:40:51.727Z,2.50
2022-09-04T21:44:00.122Z,3.27
2022-09-04T21:46:59.453Z,5.57
2022-09-04T21:50:24.643Z,5.43
2022-09-04T21:53:23.723Z,2.40
2022-09-04T22:02:13.725Z,2.50
2022-09-04T22:02:44.811Z,2.47
2022-09-04T22:02:51.355Z,2.43
2022-09-04T22:05:31.419Z,2.30
2022-09-04T22:13:31.499Z,3.87
2022-09-04T22:13:43.610Z,2.90
2022-09-04T22:14:11.758Z,2.70
2022-09-04T22:17:07.450Z,3.10
2022-09-04T22:20:07.634Z,4.80
2022-09-04T22:23:11.483Z,2.33
2022-09-04T22:25:48.813Z,2.97
2022-09-04T22:28:51.235Z,3.30
2022-09-04T22:31:47.501Z,1.93
2022-09-04T22:34:34.624Z,2.60
2022-09-04T22:37:40.321Z,3.53
2022-09-04T22:40:30.935Z,2.60
2022-09-04T22:43:11.536Z,3.53
2022-09-04T22:46:31.099Z,2.60
2022-09-04T22:49:25.928Z,2.40
2022-09-04T22:52:15.829Z,4.03
2022-09-04T22:55:09.074Z,2.90
2022-09-04T22:58:01.879Z,5.23
2022-09-04T23:00:42.003Z,2.40
2022-09-04T23:03:33.071Z,3.00
2022-09-04T23:11:09.642Z,2.73
2022-09-04T23:13:43.581Z,4.50
2022-09-04T23:13:50.737Z,4.70
2022-09-04T23:16:44.708Z,3.73
2022-09-04T23:23:53.471Z,2.50
2022-09-04T23:26:37.308Z,3.83
2022-09-04T23:26:50.718Z,3.30
2022-09-04T23:29:40.975Z,5.33
2022-09-04T23:32:29.472Z,4.07
2022-09-04T23:35:15.725Z,3.13
2022-09-04T23:38:09.981Z,3.50
2022-09-04T23:40:45.018Z,3.73
2022-09-04T23:43:47.689Z,3.20
2022-09-04T23:46:43.376Z,3.37
2022-09-04T23:49:41.796Z,3.30
2022-09-04T23:52:22.086Z,5.93
2022-09-04T23:55:08.031Z,2.73
2022-09-04T23:57:45.840Z,2.90
